createdAt,value
2023-01-25T00:01:07.204Z,26.38
2023-01-25T00:03:34.148Z,59.50
2023-01-25T00:06:01.868Z,46.75
2023-01-25T00:08:29.227Z,29.38
2023-01-25T00:10:58.356Z,25.02
2023-01-25T00:13:26.091Z,26.58
2023-01-25T00:15:53.140Z,27.40
2023-01-25T00:18:21.418Z,26.90
2023-01-25T00:20:48.241Z,25.42
2023-01-25T00:23:15.087Z,24.70
2023-01-25T00:25:41.950Z,27.48
2023-01-25T00:28:08.953Z,23.77
2023-01-25T00:30:35.836Z,26.92
2023-01-25T00:33:37.975Z,25.67
2023-01-25T00:36:25.080Z,25.92
2023-01-25T00:38:54.912Z,27.20
2023-01-25T00:41:21.815Z,29.15
2023-01-25T00:43:48.731Z,25.80
2023-01-25T00:46:18.021Z,24.90
2023-01-25T00:48:45.699Z,26.27
2023-01-25T00:51:12.738Z,28.35
2023-01-25T00:53:39.715Z,30.13
2023-01-25T00:56:07.166Z,28.85
2023-01-25T00:58:34.344Z,26.42
2023-01-25T01:01:01.265Z,27.73
2023-01-25T01:03:28.221Z,25.02
2023-01-25T01:06:11.742Z,26.73
2023-01-25T01:08:42.852Z,27.40
2023-01-25T01:11:12.577Z,25.52
2023-01-25T01:13:40.834Z,25.50
2023-01-25T01:16:13.912Z,27.20
2023-01-25T01:18:45.333Z,25.75
2023-01-25T01:21:14.088Z,24.63
2023-01-25T01:23:41.540Z,25.13
2023-01-25T01:26:14.329Z,23.08
2023-01-25T01:31:14.515Z,22.05
2023-01-25T01:36:15.289Z,18.80
2023-01-25T01:38:43.403Z,22.50
2023-01-25T01:41:11.804Z,20.45
2023-01-25T01:43:39.189Z,21.08
2023-01-25T01:46:23.410Z,23.17
2023-01-25T01:49:06.610Z,22.27
2023-01-25T01:51:49.570Z,21.13
2023-01-25T01:57:03.938Z,23.02
2023-01-25T01:59:59.155Z,22.33
2023-01-25T02:02:27.175Z,22.90
2023-01-25T02:05:01.953Z,22.88
2023-01-25T02:07:37.853Z,22.23
2023-01-25T02:10:12.538Z,22.92
2023-01-25T02:12:41.230Z,21.92
2023-01-25T02:15:09.729Z,21.42
2023-01-25T02:17:40.024Z,22.40
2023-01-25T02:20:33.115Z,24.40
2023-01-25T02:23:08.455Z,23.17
2023-01-25T02:25:35.675Z,23.50
2023-01-25T02:28:39.077Z,22.67
2023-01-25T02:31:07.258Z,22.58
2023-01-25T02:33:34.202Z,26.67
2023-01-25T02:36:19.473Z,27.88
2023-01-25T02:38:54.173Z,25.88
2023-01-25T02:41:40.214Z,26.63
2023-01-25T02:44:12.832Z,27.25
2023-01-25T02:46:41.220Z,24.17
2023-01-25T02:49:10.886Z,24.10
2023-01-25T02:51:42.484Z,23.20
2023-01-25T02:54:12.473Z,23.60
2023-01-25T02:56:42.919Z,24.63
2023-01-25T02:59:11.455Z,24.98
2023-01-25T03:01:40.934Z,24.73
2023-01-25T03:04:08.879Z,23.02
2023-01-25T03:06:37.566Z,23.38
2023-01-25T03:09:06.837Z,23.52
2023-01-25T03:11:33.928Z,24.40
2023-01-25T03:14:01.701Z,24.17
2023-01-25T03:16:30.976Z,25.27
2023-01-25T03:18:57.854Z,23.63
2023-01-25T03:21:25.084Z,25.77
2023-01-25T03:24:01.272Z,24.52
2023-01-25T03:26:29.330Z,21.80
2023-01-25T03:28:56.268Z,21.90
2023-01-25T03:31:23.595Z,23.88
2023-01-25T03:33:50.607Z,23.70
2023-01-25T03:36:17.572Z,23.25
2023-01-25T03:38:44.531Z,22.05
2023-01-25T03:41:13.621Z,22.15
2023-01-25T03:43:40.679Z,21.17
2023-01-25T03:46:07.986Z,23.25
2023-01-25T03:48:35.031Z,22.42
2023-01-25T03:51:01.984Z,21.83
2023-01-25T03:53:31.155Z,19.85
2023-01-25T03:56:11.287Z,19.92
2023-01-25T03:58:40.314Z,21.77
2023-01-25T04:01:08.464Z,20.27
2023-01-25T04:03:35.745Z,22.30
2023-01-25T04:06:04.028Z,21.38
2023-01-25T04:08:32.120Z,23.23
2023-01-25T04:11:08.897Z,21.92
2023-01-25T04:13:38.156Z,23.15
2023-01-25T04:16:07.755Z,22.50
2023-01-25T04:18:34.835Z,25.13
2023-01-25T04:21:01.893Z,21.80
2023-01-25T04:23:29.165Z,23.65
2023-01-25T04:26:01.878Z,22.85
2023-01-25T04:28:29.195Z,20.85
2023-01-25T04:30:57.770Z,22.75
2023-01-25T04:33:25.876Z,22.20
2023-01-25T04:35:53.093Z,22.63
2023-01-25T04:38:20.771Z,21.55
2023-01-25T04:40:47.699Z,24.45
2023-01-25T04:43:16.505Z,21.77
2023-01-25T04:45:43.624Z,21.67
2023-01-25T04:48:12.959Z,20.90
2023-01-25T04:50:41.617Z,27.05
2023-01-25T04:53:10.856Z,40.33
2023-01-25T04:55:37.921Z,24.15
2023-01-25T04:58:04.932Z,22.40
2023-01-25T05:00:32.510Z,23.13
2023-01-25T05:02:59.601Z,21.25
2023-01-25T05:05:26.647Z,23.15
2023-01-25T05:07:53.577Z,22.02
2023-01-25T05:10:21.275Z,24.35
2023-01-25T05:12:48.156Z,22.38
2023-01-25T05:15:15.525Z,22.50
2023-01-25T05:17:42.391Z,23.23
2023-01-25T05:20:10.573Z,22.67
2023-01-25T05:22:37.504Z,23.73
2023-01-25T05:25:06.447Z,21.63
2023-01-25T05:27:33.336Z,23.38
2023-01-25T05:30:00.280Z,23.40
2023-01-25T05:32:27.432Z,22.02
2023-01-25T05:34:54.294Z,23.13
2023-01-25T05:37:22.082Z,22.92
2023-01-25T05:39:49.048Z,21.35
2023-01-25T05:42:18.746Z,22.63
2023-01-25T05:44:47.590Z,21.15
2023-01-25T05:47:17.815Z,21.50
2023-01-25T05:49:45.091Z,21.52
2023-01-25T05:52:16.974Z,21.65
2023-01-25T05:54:44.190Z,22.17
2023-01-25T05:57:11.421Z,24.13
2023-01-25T05:59:38.248Z,22.83
2023-01-25T06:02:05.089Z,21.45
2023-01-25T06:04:32.965Z,23.15
2023-01-25T06:06:59.825Z,21.48
2023-01-25T06:09:27.111Z,24.65
2023-01-25T06:11:54.033Z,22.95
2023-01-25T06:14:20.983Z,22.48
2023-01-25T06:16:47.865Z,24.08
2023-01-25T06:19:14.907Z,26.27
2023-01-25T06:21:42.017Z,28.02
2023-01-25T06:24:09.186Z,26.30
2023-01-25T06:26:36.212Z,28.40
2023-01-25T06:29:06.792Z,25.77
2023-01-25T06:31:34.855Z,32.45
2023-01-25T06:34:04.545Z,28.20
2023-01-25T06:36:31.459Z,25.83
2023-01-25T06:39:01.402Z,27.20
2023-01-25T06:41:28.533Z,27.02
2023-01-25T06:43:55.955Z,24.75
2023-01-25T06:46:22.921Z,26.10
2023-01-25T06:48:49.808Z,24.45
2023-01-25T06:51:17.563Z,23.30
2023-01-25T06:53:46.420Z,24.63
2023-01-25T06:56:21.613Z,24.20
2023-01-25T06:58:50.456Z,22.50
2023-01-25T07:01:27.165Z,22.50
2023-01-25T07:03:57.308Z,21.85
2023-01-25T07:06:26.495Z,22.90
2023-01-25T07:08:53.750Z,23.30
2023-01-25T07:11:20.737Z,27.20
2023-01-25T07:13:48.250Z,26.45
2023-01-25T07:16:20.519Z,30.77
2023-01-25T07:18:48.125Z,24.60
2023-01-25T07:21:20.513Z,25.92
2023-01-25T07:23:49.182Z,25.55
2023-01-25T07:26:25.428Z,23.23
2023-01-25T07:28:54.085Z,23.10
2023-01-25T07:31:21.646Z,25.95
2023-01-25T07:33:53.671Z,26.17
2023-01-25T07:36:21.680Z,22.97
2023-01-25T07:38:49.517Z,27.17
2023-01-25T07:41:16.573Z,29.83
2023-01-25T07:43:43.830Z,28.25
2023-01-25T07:46:13.690Z,29.00
2023-01-25T07:48:46.713Z,28.00
2023-01-25T07:51:25.085Z,24.17
2023-01-25T07:53:54.984Z,25.15
2023-01-25T07:56:32.710Z,26.98
2023-01-25T07:59:02.861Z,29.50
2023-01-25T08:01:34.678Z,31.27
2023-01-25T08:04:04.634Z,27.23
2023-01-25T08:06:41.128Z,28.98
2023-01-25T08:09:16.097Z,28.48
2023-01-25T08:11:43.440Z,27.95
2023-01-25T08:14:11.425Z,29.10
2023-01-25T08:16:38.480Z,29.13
2023-01-25T08:19:05.984Z,31.77
2023-01-25T08:21:35.099Z,41.53
2023-01-25T08:24:06.232Z,36.75
2023-01-25T08:26:37.616Z,43.65
2023-01-25T08:29:06.060Z,34.50
2023-01-25T08:31:35.876Z,30.08
2023-01-25T08:34:04.739Z,28.15
2023-01-25T08:36:32.036Z,29.52
2023-01-25T08:39:03.824Z,29.08
2023-01-25T08:41:32.558Z,32.65
2023-01-25T08:44:02.841Z,34.70
2023-01-25T08:46:33.095Z,30.48
2023-01-25T08:49:02.859Z,30.30
2023-01-25T08:51:32.019Z,27.60
2023-01-25T08:54:07.719Z,32.67
2023-01-25T08:56:38.413Z,32.53
2023-01-25T08:59:07.510Z,32.00
2023-01-25T09:01:34.422Z,30.95
2023-01-25T09:04:01.489Z,31.85
2023-01-25T09:06:28.585Z,30.60
2023-01-25T09:23:51.367Z,37.50
2023-01-25T09:26:26.319Z,35.28
2023-01-25T09:28:54.675Z,36.83
2023-01-25T09:31:23.804Z,36.72
2023-01-25T09:33:52.710Z,37.75
2023-01-25T09:36:20.371Z,36.35
2023-01-25T09:38:49.975Z,36.15
2023-01-25T09:41:51.636Z,39.88
2023-01-25T09:44:21.402Z,39.33
2023-01-25T09:47:04.727Z,42.60
2023-01-25T09:50:13.759Z,46.20
2023-01-25T09:52:57.403Z,44.03
2023-01-25T09:55:29.888Z,46.33
2023-01-25T09:58:00.362Z,46.13
2023-01-25T10:00:41.076Z,45.97
2023-01-25T10:03:38.831Z,50.08
2023-01-25T10:06:14.360Z,48.42
2023-01-25T10:09:01.318Z,52.08
2023-01-25T10:11:38.694Z,54.47
2023-01-25T10:14:15.345Z,50.38
2023-01-25T10:16:48.478Z,58.03
2023-01-25T10:19:30.514Z,47.05
2023-01-25T10:22:14.587Z,46.92
2023-01-25T10:25:20.981Z,40.90
2023-01-25T10:28:00.829Z,43.55
2023-01-25T10:30:44.433Z,43.80
2023-01-25T10:33:18.140Z,43.75
2023-01-25T10:35:49.648Z,44.90
2023-01-25T10:38:29.330Z,42.30
2023-01-25T10:41:07.404Z,46.15
2023-01-25T10:43:34.289Z,42.05
2023-01-25T10:46:02.495Z,40.97
2023-01-25T10:48:40.235Z,41.13
2023-01-25T10:51:07.336Z,36.15
2023-01-25T10:53:42.168Z,36.20
2023-01-25T10:56:12.022Z,36.65
2023-01-25T10:58:46.718Z,34.60
2023-01-25T11:01:31.541Z,34.75
2023-01-25T11:04:01.560Z,34.20
2023-01-25T11:06:38.527Z,37.25
2023-01-25T11:09:31.125Z,32.78
2023-01-25T11:12:28.585Z,33.97
2023-01-25T11:14:55.476Z,33.58
2023-01-25T11:17:34.639Z,34.72
2023-01-25T11:20:15.824Z,32.28
2023-01-25T11:22:57.563Z,33.80
2023-01-25T11:25:42.260Z,34.55
2023-01-25T11:28:24.333Z,37.95
2023-01-25T11:30:53.736Z,35.15
2023-01-25T11:33:22.304Z,30.40
2023-01-25T11:36:26.819Z,30.83
2023-01-25T11:38:59.007Z,32.40
2023-01-25T11:41:29.102Z,34.58
2023-01-25T11:44:33.769Z,31.92
2023-01-25T11:47:13.059Z,32.00
2023-01-25T11:50:06.229Z,30.42
2023-01-25T11:52:59.534Z,32.88
2023-01-25T11:58:12.975Z,31.98
2023-01-25T12:00:49.216Z,31.60
2023-01-25T12:03:18.726Z,32.50
2023-01-25T12:06:05.261Z,30.75
2023-01-25T12:08:46.840Z,34.20
2023-01-25T12:11:39.747Z,33.10
2023-01-25T12:14:46.772Z,32.40
2023-01-25T12:17:22.879Z,34.72
2023-01-25T12:20:40.396Z,31.00
2023-01-25T12:23:47.744Z,31.83
2023-01-25T12:26:44.157Z,34.92
2023-01-25T12:29:31.075Z,35.08
2023-01-25T12:32:28.020Z,33.22
2023-01-25T12:35:30.612Z,32.35
2023-01-25T12:38:04.786Z,37.50
2023-01-25T12:41:08.348Z,36.78
2023-01-25T12:47:37.610Z,33.00
2023-01-25T12:50:25.399Z,35.67
2023-01-25T12:53:00.369Z,37.15
2023-01-25T12:55:28.370Z,32.47
2023-01-25T12:58:37.696Z,36.33
2023-01-25T13:01:35.723Z,38.28
2023-01-25T13:04:22.523Z,35.03
2023-01-25T13:07:08.029Z,37.90
2023-01-25T13:13:42.761Z,40.28
2023-01-25T13:16:30.856Z,37.00
2023-01-25T13:18:58.732Z,38.63
2023-01-25T13:21:39.210Z,38.60
2023-01-25T13:24:20.828Z,38.25
2023-01-25T13:26:53.201Z,39.67
2023-01-25T13:29:42.982Z,36.75
2023-01-25T13:32:36.234Z,36.45
2023-01-25T13:35:03.492Z,38.47
2023-01-25T13:37:42.472Z,41.13
2023-01-25T13:40:32.091Z,40.50
2023-01-25T13:43:05.430Z,40.50
2023-01-25T13:45:37.688Z,42.67
2023-01-25T13:48:23.471Z,40.40
2023-01-25T13:51:03.549Z,38.95
2023-01-25T13:53:33.454Z,41.45
2023-01-25T13:56:01.034Z,41.20
2023-01-25T13:58:37.417Z,46.78
2023-01-25T14:01:17.341Z,43.72
2023-01-25T14:03:59.545Z,40.33
2023-01-25T14:06:38.268Z,30.97
2023-01-25T14:09:16.845Z,42.08
2023-01-25T14:12:08.470Z,41.40
2023-01-25T14:14:37.168Z,42.58
2023-01-25T14:17:22.079Z,39.88
2023-01-25T14:19:54.448Z,41.75
2023-01-25T14:22:29.021Z,42.08
2023-01-25T14:25:05.125Z,39.97
2023-01-25T14:27:33.986Z,41.53
2023-01-25T14:30:02.946Z,41.10
2023-01-25T14:32:29.939Z,39.10
2023-01-25T14:34:56.854Z,40.17
2023-01-25T14:37:23.729Z,42.65
2023-01-25T14:39:52.168Z,40.95
2023-01-25T14:42:19.985Z,43.80
2023-01-25T14:44:47.697Z,38.90
2023-01-25T14:47:26.549Z,38.85
2023-01-25T14:49:53.503Z,41.13
2023-01-25T14:52:26.612Z,41.25
2023-01-25T14:55:00.531Z,44.42
2023-01-25T14:57:38.789Z,41.67
2023-01-25T15:00:23.815Z,41.15
2023-01-25T15:02:56.305Z,41.65
2023-01-25T15:05:33.140Z,42.83
2023-01-25T15:08:09.183Z,41.53
2023-01-25T15:10:38.779Z,38.75
2023-01-25T15:13:24.002Z,38.80
2023-01-25T15:16:00.580Z,38.40
2023-01-25T15:19:00.043Z,39.42
2023-01-25T15:21:34.328Z,42.83
2023-01-25T15:24:06.892Z,41.33
2023-01-25T15:29:16.952Z,38.65
2023-01-25T15:31:44.252Z,35.42
2023-01-25T15:34:25.514Z,40.40
2023-01-25T15:36:52.696Z,37.80
2023-01-25T15:39:20.732Z,43.35
2023-01-25T15:41:48.795Z,75.03
2023-01-25T15:44:17.562Z,47.58
2023-01-25T15:46:50.220Z,39.60
2023-01-25T15:49:29.011Z,37.58
2023-01-25T15:51:56.587Z,39.38
2023-01-25T15:54:24.359Z,42.33
2023-01-25T15:56:57.496Z,38.78
2023-01-25T15:59:25.177Z,38.45
2023-01-25T16:01:52.217Z,41.40
2023-01-25T16:04:19.089Z,43.35
2023-01-25T16:06:52.394Z,36.97
2023-01-25T16:09:23.859Z,38.47
2023-01-25T16:11:54.533Z,39.03
2023-01-25T16:14:23.725Z,40.13
2023-01-25T16:16:52.933Z,38.20
2023-01-25T16:19:23.233Z,39.15
2023-01-25T16:21:51.410Z,40.33
2023-01-25T16:24:19.145Z,36.90
2023-01-25T16:26:56.597Z,37.40
2023-01-25T16:29:24.246Z,39.08
2023-01-25T16:31:52.814Z,40.80
2023-01-25T16:34:21.056Z,39.83
2023-01-25T16:36:51.499Z,37.72
2023-01-25T16:39:25.215Z,39.17
2023-01-25T16:41:52.190Z,34.65
2023-01-25T16:44:19.837Z,40.88
2023-01-25T16:46:49.991Z,68.65
2023-01-25T16:49:30.443Z,69.05
2023-01-25T16:51:58.526Z,42.45
2023-01-25T16:54:26.850Z,39.85
2023-01-25T16:56:54.755Z,39.05
2023-01-25T16:59:23.910Z,34.97
2023-01-25T17:01:51.712Z,38.20
2023-01-25T17:04:21.963Z,37.97
2023-01-25T17:06:50.872Z,41.60
2023-01-25T17:09:24.017Z,36.25
2023-01-25T17:11:53.826Z,40.90
2023-01-25T17:14:22.602Z,46.25
2023-01-25T17:16:51.543Z,46.05
2023-01-25T17:19:19.373Z,42.15
2023-01-25T17:21:46.741Z,44.38
2023-01-25T17:24:19.439Z,46.65
2023-01-25T17:26:46.623Z,49.08
2023-01-25T17:29:13.849Z,40.55
2023-01-25T17:31:42.145Z,44.47
2023-01-25T17:34:13.619Z,44.47
2023-01-25T17:36:40.741Z,43.40
2023-01-25T17:39:08.221Z,43.85
2023-01-25T17:41:35.359Z,45.85
2023-01-25T17:44:02.930Z,44.35
2023-01-25T17:46:35.013Z,40.42
2023-01-25T17:49:05.267Z,38.10
2023-01-25T17:51:36.797Z,45.35
2023-01-25T17:54:05.143Z,44.90
2023-01-25T17:56:32.199Z,40.80
2023-01-25T17:59:01.083Z,43.72
2023-01-25T18:01:31.961Z,42.08
2023-01-25T18:04:00.607Z,40.75
2023-01-25T18:06:31.282Z,43.78
2023-01-25T18:09:01.691Z,48.42
2023-01-25T18:11:33.105Z,51.63
2023-01-25T18:14:09.284Z,53.97
2023-01-25T18:16:39.747Z,74.05
2023-01-25T18:19:08.615Z,212.82
2023-01-25T18:21:36.475Z,82.03
2023-01-25T18:24:27.820Z,152.88
2023-01-25T18:27:20.663Z,53.58
2023-01-25T18:29:59.480Z,37.65
2023-01-25T18:32:27.211Z,46.30
2023-01-25T18:34:55.833Z,98.15
2023-01-25T18:37:25.676Z,129.23
2023-01-25T18:39:55.194Z,73.22
2023-01-25T18:42:24.878Z,58.95
2023-01-25T18:44:51.851Z,56.53
2023-01-25T18:47:21.865Z,52.88
2023-01-25T18:49:51.318Z,49.60
2023-01-25T18:52:20.107Z,60.60
2023-01-25T18:54:47.200Z,50.78
2023-01-25T18:57:15.326Z,60.53
2023-01-25T18:59:42.929Z,53.10
2023-01-25T19:02:15.625Z,54.40
2023-01-25T19:04:42.730Z,57.15
2023-01-25T19:07:09.762Z,59.58
2023-01-25T19:09:36.902Z,57.92
2023-01-25T19:12:04.894Z,64.07
2023-01-25T19:14:31.899Z,88.30
2023-01-25T19:16:58.843Z,86.70
2023-01-25T19:19:31.712Z,48.70
2023-01-25T19:22:00.147Z,44.85
2023-01-25T19:24:29.148Z,40.15
2023-01-25T19:26:56.170Z,42.58
2023-01-25T19:29:23.113Z,50.28
2023-01-25T19:31:51.925Z,64.90
2023-01-25T19:34:18.897Z,58.30
2023-01-25T19:36:49.994Z,50.30
2023-01-25T19:39:18.195Z,56.55
2023-01-25T19:41:45.539Z,55.20
2023-01-25T19:44:14.712Z,47.97
2023-01-25T19:46:42.213Z,60.90
2023-01-25T19:49:13.167Z,73.43
2023-01-25T19:51:45.319Z,66.65
2023-01-25T19:54:16.770Z,74.95
2023-01-25T19:56:47.023Z,68.15
2023-01-25T19:59:24.809Z,58.78
2023-01-25T20:01:52.425Z,54.10
2023-01-25T20:04:22.924Z,55.97
2023-01-25T20:06:51.187Z,53.30
2023-01-25T20:09:20.114Z,47.35
2023-01-25T20:11:47.527Z,52.00
2023-01-25T20:14:15.442Z,55.05
2023-01-25T20:16:42.868Z,68.75
2023-01-25T20:19:12.156Z,50.65
2023-01-25T20:21:39.970Z,48.08
2023-01-25T20:24:09.740Z,68.05
2023-01-25T20:26:40.022Z,67.82
2023-01-25T20:29:08.036Z,55.63
2023-01-25T20:31:41.775Z,46.25
2023-01-25T20:34:17.128Z,44.22
2023-01-25T20:36:44.454Z,46.85
2023-01-25T20:39:18.203Z,47.10
2023-01-25T20:41:45.707Z,45.13
2023-01-25T20:44:15.646Z,48.20
2023-01-25T20:46:43.181Z,49.28
2023-01-25T20:49:16.888Z,46.78
2023-01-25T20:51:44.782Z,51.97
2023-01-25T20:54:12.420Z,57.72
2023-01-25T20:56:39.617Z,50.08
2023-01-25T20:59:06.919Z,55.45
2023-01-25T21:01:36.853Z,72.53
2023-01-25T21:04:08.188Z,51.05
2023-01-25T21:06:35.878Z,56.00
2023-01-25T21:09:04.637Z,51.95
2023-01-25T21:11:32.455Z,47.92
2023-01-25T21:13:59.611Z,50.40
2023-01-25T21:16:26.901Z,51.53
2023-01-25T21:19:00.209Z,48.72
2023-01-25T21:21:30.463Z,55.10
2023-01-25T21:24:00.094Z,59.80
2023-01-25T21:26:31.688Z,52.83
2023-01-25T21:29:01.094Z,51.10
2023-01-25T21:31:38.297Z,49.70
2023-01-25T21:34:06.659Z,45.55
2023-01-25T21:36:34.778Z,45.90
2023-01-25T21:39:02.422Z,47.97
2023-01-25T21:41:33.517Z,50.97
2023-01-25T21:44:20.063Z,48.38
2023-01-25T21:47:12.463Z,51.72
2023-01-25T21:49:52.577Z,72.30
2023-01-25T21:52:19.540Z,152.60
2023-01-25T21:54:46.414Z,66.25
2023-01-25T21:57:13.305Z,52.25
2023-01-25T21:59:40.949Z,71.78
2023-01-25T22:02:13.962Z,67.13
2023-01-25T22:04:41.178Z,60.35
2023-01-25T22:07:09.650Z,84.20
2023-01-25T22:09:36.589Z,81.65
2023-01-25T22:12:03.796Z,75.43
2023-01-25T22:14:30.681Z,74.05
2023-01-25T22:16:58.078Z,77.45
2023-01-25T22:19:25.016Z,54.58
2023-01-25T22:21:51.964Z,64.05
2023-01-25T22:24:19.044Z,55.40
2023-01-25T22:26:45.844Z,52.22
2023-01-25T22:29:13.886Z,61.10
2023-01-25T22:31:41.444Z,73.10
2023-01-25T22:34:08.486Z,82.93
2023-01-25T22:36:35.454Z,64.00
2023-01-25T22:39:02.268Z,80.40
2023-01-25T22:41:32.124Z,83.47
2023-01-25T22:43:59.175Z,60.80
2023-01-25T22:46:29.205Z,83.47
2023-01-25T22:48:57.824Z,73.65
2023-01-25T22:51:29.943Z,78.85
2023-01-25T22:53:58.748Z,54.70
2023-01-25T22:56:32.583Z,60.63
2023-01-25T22:59:01.294Z,60.95
2023-01-25T23:01:31.921Z,78.68
2023-01-25T23:03:59.875Z,95.68
2023-01-25T23:06:35.690Z,96.68
2023-01-25T23:09:06.298Z,76.75
2023-01-25T23:11:37.179Z,88.97
2023-01-25T23:14:25.299Z,83.13
2023-01-25T23:16:53.117Z,73.82
2023-01-25T23:19:20.551Z,59.20
2023-01-25T23:21:47.472Z,77.07
2023-01-25T23:24:15.525Z,79.43
2023-01-25T23:26:46.507Z,72.97
2023-01-25T23:29:14.471Z,68.72
2023-01-25T23:31:41.729Z,70.72
2023-01-25T23:34:11.778Z,73.88
2023-01-25T23:36:39.645Z,66.75
2023-01-25T23:39:06.751Z,65.25
2023-01-25T23:41:35.224Z,66.90
2023-01-25T23:44:02.209Z,99.53
2023-01-25T23:46:30.591Z,84.38
2023-01-25T23:48:57.477Z,84.70
2023-01-25T23:51:24.617Z,93.43
2023-01-25T23:53:55.791Z,77.80
2023-01-25T23:56:22.914Z,85.30
2023-01-25T23:58:50.597Z,67.13
